Aircraft
UPR1005 PR-QAA Citation
ZLXY
Xi'an Xianyang International Airport
RODN
Kadena Air Base
Pilot:: Eber
Aircraft:: Cessna Citation CJ4
Alternate: RORS
Network: ivao
FLIGHT DETAILS
Distance: 1097nm Duration 02h 45m
Cruise Speed: Flight Level: 41000
Validation: Validated Type Charter
Flight Fuel
ZFW: 4957
Block Fuel/Initial FOB: 2663
Flight Fuel: 1494
Cargo
Passengers: 7
Cargo: 0
ROUTE
ROUTE: PASGU W638 KAMDA W128 FYG B208 HFE R343 SASAN W167 SUF W583 JTN G327 BOLEX B591 MIGOL A326 APITO
REMARKS:
DATE
Date: 26-05-07
Departure Time: 1230
Cargo: 0
FLIGHT DETAILS
Crashed: No
Validator Comments: Validado por Rafael
Flight Rating: 100
LANDING ANALYSIS
Landing wind: 283º/0 kt
Landing heading: 62º
Landing VS:: -111 ft/min
Landing IAS:: 113 kt
Landing Force G: 1.2 G
Landing Bank: 0
Landing Pitch: -1
Landing Flaps: 100
Navigation Lights: ON
Landing Lights: ON
Beacon Lights: ON
Strobe Lights: ON
viserfly

ALTITUDE CHART

viserfly

MAIN EVENTS

DATE EVENT IAS ALTITUDE
2026-05-07 12:13:58 FLYacars version 1.3.5 0 1568
2026-05-07 12:13:58 FLAPS 50% 0 1568
2026-05-07 12:13:58 Beacon Lights ON 0 1568
2026-05-07 12:14:28 Starting Engine 2 0 1568
2026-05-07 12:14:42 Starting Engine 1 0 1568
2026-05-07 12:20:45 Taxi Lights ON 0 1568
2026-05-07 12:20:46 Aircraft boarding in progress 0 1568
2026-05-07 12:20:46 Navigation Lights ON 0 1568
2026-05-07 12:20:46 Strobe Lights ON 0 1568
2026-05-07 12:24:54 Aircraft taxiing to runway 6 1568
2026-05-07 12:30:05 Landing Lights ON 0 1564
2026-05-07 12:30:05 Taxi Lights OFF 0 1564
2026-05-07 12:30:07 Taxi Lights ON 0 1564
2026-05-07 12:30:47 Detected Take-off roll, HDG 42, IAS 166kt, GS 174kt, G-force 1.1g, Pitch -2.1deg, Bank -0.4deg, Wind 290/02kt, Temp 17°C 166 1568
2026-05-07 12:30:47 Airborne 166 1568
2026-05-07 12:30:50 Gear UP, IAS 174kt, GS 181kt, ALT 67ft AGL 174 1635
2026-05-07 12:31:00 FLAPS 0% 194kt, ALT 1981ft 194 1981
2026-05-07 12:33:13 Landing Lights OFF 218 10273
2026-05-07 12:33:13 Taxi Lights OFF 218 10273
2026-05-07 12:49:32 Aircraft on Top Of Climb at 41454ft, IAS 165kt, GS 419kt, HDG 105deg, TAT -56deg, WIND 276/90kt 165 41454
2026-05-07 14:53:32 Aircraft on Top Of Descent at 40499ft, IAS 203kt, GS 445kt, HDG 148deg, TAT -54deg, WIND 296/64kt 203 40499
2026-05-07 15:07:29 Landing Lights ON 239 9903
2026-05-07 15:07:30 Taxi Lights ON 238 9878
2026-05-07 15:12:13 FLAPS 50% 199kt, ALT 3778ft 199 3778
2026-05-07 15:12:13 FLAPS 100% 199kt, ALT 3775ft 199 3775
2026-05-07 15:12:18 FLAPS 50% 188kt, ALT 3727ft 188 3727
2026-05-07 15:13:38 Gear DOWN, IAS 196kt, GS 212kt, ALT 2329ft AGL 196 2329
2026-05-07 15:14:45 FLAPS 100% 164kt, ALT 1255ft 164 1255
2026-05-07 15:16:33 Landed at destination with a landing rate of -111fpm, G-force 1.2g, Pitch -0.5deg, Bank -0.4deg, HDG 62deg, IAS 113kt, GS 114kt, Wind 283/00kt, Temp 22°C 113 106
2026-05-07 15:16:50 Aircraft taxiing to apron 24 115
2026-05-07 15:20:45 Landing Lights OFF 0 137
2026-05-07 15:20:45 Taxi Lights OFF 0 137
2026-05-07 15:20:46 Taxi Lights ON 0 137
2026-05-07 15:20:47 Taxi Lights OFF 0 137
2026-05-07 15:20:48 Strobe Lights OFF 0 137
2026-05-07 15:20:49 Navigation Lights OFF 0 137
2026-05-07 15:22:18 Engine 2 shutdown 0 137
2026-05-07 15:22:20 Engine 1 shutdown 0 137
2026-05-07 15:22:38 FLAPS 50% 0 137
2026-05-07 15:29:36 Aircraft at gate/stand, ground services are moving into position, disembarkation has begun. Remaining FOB 1169kg FLYacars v1.3.5 0 137
viserfly

ACARS DATA

DATE IAS GS ALTITUDE FUEL CONSUMED OAT FLIGHT STATUS
2026-05-07 12:14:28 0 0 1568 0 19 BOARDING
2026-05-07 12:14:58 0 0 1568 1 19 BOARDING
2026-05-07 12:15:28 0 0 1568 2 19 BOARDING
2026-05-07 12:15:58 0 0 1568 3 19 BOARDING
2026-05-07 12:16:28 0 0 1568 4 19 BOARDING
2026-05-07 12:16:58 0 0 1568 5 19 BOARDING
2026-05-07 12:17:28 0 0 1568 6 19 BOARDING
2026-05-07 12:17:58 0 0 1568 7 19 BOARDING
2026-05-07 12:18:28 0 0 1568 8 19 BOARDING
2026-05-07 12:18:58 0 0 1568 9 19 BOARDING
2026-05-07 12:19:28 0 0 1568 10 19 BOARDING
2026-05-07 12:19:58 0 0 1568 11 19 BOARDING
2026-05-07 12:20:28 0 0 1568 12 19 BOARDING
2026-05-07 12:20:58 0 0 1568 13 19 BOARDING
2026-05-07 12:21:28 0 2 1568 14 17 PUSHBACK
2026-05-07 12:21:58 0 2 1568 15 17 PUSHBACK
2026-05-07 12:22:28 1 0 1568 16 17 PUSHBACK
2026-05-07 12:22:58 1 0 1568 17 17 PUSHBACK
2026-05-07 12:23:28 1 0 1568 18 17 PUSHBACK
2026-05-07 12:23:58 1 0 1568 19 17 PUSHBACK
2026-05-07 12:24:28 0 0 1568 21 17 PUSHBACK
2026-05-07 12:24:58 9 8 1568 22 17 TAXI TO RUNWAY
2026-05-07 12:25:28 17 18 1568 23 17 TAXI TO RUNWAY
2026-05-07 12:25:58 20 20 1567 25 17 TAXI TO RUNWAY
2026-05-07 12:26:28 22 23 1566 26 17 TAXI TO RUNWAY
2026-05-07 12:26:58 20 21 1565 27 17 TAXI TO RUNWAY
2026-05-07 12:27:28 18 18 1565 28 17 TAXI TO RUNWAY
2026-05-07 12:27:58 17 17 1564 29 17 TAXI TO RUNWAY
2026-05-07 12:28:28 17 18 1563 30 19 TAXI TO RUNWAY
2026-05-07 12:28:58 5 8 1563 31 19 TAXI TO RUNWAY
2026-05-07 12:29:28 8 10 1563 32 17 TAXI TO RUNWAY
2026-05-07 12:29:58 9 10 1564 33 17 TAXI TO RUNWAY
2026-05-07 12:30:28 63 68 1564 38 17 TAKEOFF
2026-05-07 12:30:58 188 196 1888 52 17 TAKEOFF
2026-05-07 12:31:28 222 232 3244 62 16 INITIAL CLIMB
2026-05-07 12:31:58 219 228 5498 72 11 CLIMB
2026-05-07 12:32:28 218 233 7507 82 7 CLIMB
2026-05-07 12:32:58 218 241 9350 93 2 CLIMB
2026-05-07 12:33:28 217 251 11059 103 0 CLIMB
2026-05-07 12:33:58 218 262 12612 114 -2 CLIMB
2026-05-07 12:34:28 218 274 14095 124 -4 CLIMB
2026-05-07 12:34:58 218 277 15634 135 -7 CLIMB
2026-05-07 12:35:28 218 283 17100 145 -10 CLIMB
2026-05-07 12:35:58 218 290 18471 155 -13 CLIMB
2026-05-07 12:36:28 217 302 19711 165 -15 CLIMB
2026-05-07 12:36:58 217 315 20884 175 -17 CLIMB
2026-05-07 12:37:28 217 327 21995 185 -18 CLIMB
2026-05-07 12:37:58 217 340 23052 194 -20 CLIMB
2026-05-07 12:38:28 218 352 24045 204 -21 CLIMB
2026-05-07 12:38:58 218 362 25048 213 -23 CLIMB
2026-05-07 12:39:28 218 370 26085 223 -26 CLIMB
2026-05-07 12:39:58 218 379 27070 232 -28 CLIMB
2026-05-07 12:40:28 218 386 28019 241 -30 CLIMB
2026-05-07 12:40:58 219 395 28892 250 -32 CLIMB
2026-05-07 12:41:28 212 396 29979 258 -34 CLIMB
2026-05-07 12:41:58 209 399 30887 267 -36 CLIMB
2026-05-07 12:42:28 205 402 31797 275 -39 CLIMB
2026-05-07 12:42:58 201 404 32669 283 -41 CLIMB
2026-05-07 12:43:28 197 406 33524 291 -43 CLIMB
2026-05-07 12:43:58 193 408 34359 298 -45 CLIMB
2026-05-07 12:44:28 190 410 35174 306 -47 CLIMB
2026-05-07 12:44:58 186 411 35960 313 -48 CLIMB
2026-05-07 12:45:28 183 413 36667 320 -49 CLIMB
2026-05-07 12:45:58 180 414 37200 327 -50 CLIMB
2026-05-07 12:46:28 178 415 37878 333 -51 CLIMB
2026-05-07 12:46:58 176 416 38458 339 -52 CLIMB
2026-05-07 12:47:28 173 416 39062 345 -53 CLIMB
2026-05-07 12:47:58 171 417 39636 351 -54 CLIMB
2026-05-07 12:48:28 169 417 40248 357 -55 CLIMB
2026-05-07 12:48:58 166 418 40842 363 -55 CLIMB
2026-05-07 12:49:28 164 418 41408 369 -56 CLIMB
2026-05-07 12:49:58 171 432 41535 374 -56 ENROUTE
2026-05-07 12:50:28 175 440 41555 379 -56 ENROUTE
2026-05-07 12:50:58 179 447 41560 383 -56 ENROUTE
2026-05-07 12:51:28 182 454 41558 387 -56 ENROUTE
2026-05-07 12:51:58 186 461 41552 392 -56 ENROUTE
2026-05-07 12:52:28 190 467 41557 396 -56 ENROUTE
2026-05-07 12:52:58 193 471 41555 400 -56 ENROUTE
2026-05-07 12:53:28 194 474 41548 405 -56 ENROUTE
2026-05-07 12:53:58 195 476 41557 409 -56 ENROUTE
2026-05-07 12:54:28 197 480 41552 413 -56 ENROUTE
2026-05-07 12:54:58 197 480 41553 418 -56 ENROUTE
2026-05-07 12:55:28 199 483 41554 422 -56 ENROUTE
2026-05-07 12:55:58 200 485 41564 426 -56 ENROUTE
2026-05-07 12:56:28 201 487 41562 431 -56 ENROUTE
2026-05-07 12:56:58 202 489 41561 435 -56 ENROUTE
2026-05-07 12:57:28 201 486 41566 439 -56 ENROUTE
2026-05-07 12:57:58 199 484 41559 444 -56 ENROUTE
2026-05-07 12:58:28 200 486 41559 448 -56 ENROUTE
2026-05-07 12:58:58 202 488 41542 452 -56 ENROUTE
2026-05-07 12:59:28 202 489 41534 457 -56 ENROUTE
2026-05-07 12:59:58 202 490 41522 461 -56 ENROUTE
2026-05-07 13:00:28 202 491 41522 465 -56 ENROUTE
2026-05-07 13:00:58 203 492 41524 469 -56 ENROUTE
2026-05-07 13:01:28 204 493 41521 474 -56 ENROUTE
2026-05-07 13:01:58 203 494 41520 478 -56 ENROUTE
2026-05-07 13:02:28 204 495 41521 482 -56 ENROUTE
2026-05-07 13:02:58 204 495 41519 487 -56 ENROUTE
2026-05-07 13:03:28 204 496 41522 491 -56 ENROUTE
2026-05-07 13:03:58 205 496 41521 495 -55 ENROUTE
2026-05-07 13:04:28 205 497 41519 500 -55 ENROUTE
2026-05-07 13:04:58 205 497 41520 504 -55 ENROUTE
2026-05-07 13:05:28 205 497 41519 508 -55 ENROUTE
2026-05-07 13:05:58 206 497 41521 512 -55 ENROUTE
2026-05-07 13:06:28 206 497 41521 517 -55 ENROUTE
2026-05-07 13:06:58 206 498 41522 521 -55 ENROUTE
2026-05-07 13:07:28 206 498 41523 525 -55 ENROUTE
2026-05-07 13:07:58 206 498 41524 529 -55 ENROUTE
2026-05-07 13:08:28 206 498 41525 534 -55 ENROUTE
2026-05-07 13:08:58 206 497 41526 538 -55 ENROUTE
2026-05-07 13:09:28 206 498 41526 542 -55 ENROUTE
2026-05-07 13:09:58 206 498 41527 547 -55 ENROUTE
2026-05-07 13:10:28 205 496 41527 551 -55 ENROUTE
2026-05-07 13:10:58 204 494 41527 555 -55 ENROUTE
2026-05-07 13:11:28 203 492 41529 559 -55 ENROUTE
2026-05-07 13:11:58 202 490 41533 563 -55 ENROUTE
2026-05-07 13:12:28 201 489 41534 567 -55 ENROUTE
2026-05-07 13:12:58 201 488 41534 571 -55 ENROUTE
2026-05-07 13:13:28 200 487 41534 575 -55 ENROUTE
2026-05-07 13:13:58 200 486 41535 579 -55 ENROUTE
2026-05-07 13:14:28 200 485 41533 583 -55 ENROUTE
2026-05-07 13:14:58 199 485 41534 587 -55 ENROUTE
2026-05-07 13:15:28 199 484 41535 591 -55 ENROUTE
2026-05-07 13:15:58 199 483 41545 595 -55 ENROUTE
2026-05-07 13:16:28 199 483 41544 599 -55 ENROUTE
2026-05-07 13:16:58 199 483 41543 603 -55 ENROUTE
2026-05-07 13:17:28 198 483 41543 607 -55 ENROUTE
2026-05-07 13:17:58 198 482 41551 611 -55 ENROUTE
2026-05-07 13:18:28 198 482 41550 615 -55 ENROUTE
2026-05-07 13:18:58 198 482 41550 619 -55 ENROUTE
2026-05-07 13:19:28 198 482 41549 623 -55 ENROUTE
2026-05-07 13:19:58 198 482 41553 627 -55 ENROUTE
2026-05-07 13:20:28 198 482 41553 631 -55 ENROUTE
2026-05-07 13:20:58 198 481 41553 635 -55 ENROUTE
2026-05-07 13:21:28 198 481 41554 639 -55 ENROUTE
2026-05-07 13:21:58 198 481 41567 643 -55 ENROUTE
2026-05-07 13:22:28 198 481 41568 647 -55 ENROUTE
2026-05-07 13:22:58 198 481 41568 651 -55 ENROUTE
2026-05-07 13:23:28 198 480 41568 655 -55 ENROUTE
2026-05-07 13:23:58 198 480 41568 659 -55 ENROUTE
2026-05-07 13:24:28 198 480 41569 663 -55 ENROUTE
2026-05-07 13:24:58 198 480 41569 667 -55 ENROUTE
2026-05-07 13:25:28 198 480 41569 671 -55 ENROUTE
2026-05-07 13:25:58 198 480 41570 675 -55 ENROUTE
2026-05-07 13:26:28 198 480 41570 679 -55 ENROUTE
2026-05-07 13:26:58 198 480 41570 683 -55 ENROUTE
2026-05-07 13:27:28 198 479 41583 687 -55 ENROUTE
2026-05-07 13:27:58 198 480 41583 691 -55 ENROUTE
2026-05-07 13:28:28 198 480 41582 695 -55 ENROUTE
2026-05-07 13:28:58 198 479 41583 699 -55 ENROUTE
2026-05-07 13:29:28 198 479 41592 703 -55 ENROUTE
2026-05-07 13:29:58 198 479 41592 707 -55 ENROUTE
2026-05-07 13:30:28 198 479 41592 711 -55 ENROUTE
2026-05-07 13:30:58 198 479 41592 715 -55 ENROUTE
2026-05-07 13:31:28 198 479 41598 719 -55 ENROUTE
2026-05-07 13:31:58 198 479 41599 723 -55 ENROUTE
2026-05-07 13:32:28 198 479 41600 727 -55 ENROUTE
2026-05-07 13:32:58 198 478 41600 731 -55 ENROUTE
2026-05-07 13:33:28 198 479 41600 735 -55 ENROUTE
2026-05-07 13:33:58 198 479 41601 739 -55 ENROUTE
2026-05-07 13:34:28 198 478 41601 743 -55 ENROUTE
2026-05-07 13:34:58 198 478 41601 747 -55 ENROUTE
2026-05-07 13:35:28 199 478 41615 751 -55 ENROUTE
2026-05-07 13:35:58 198 478 41616 755 -55 ENROUTE
2026-05-07 13:36:28 199 478 41617 759 -55 ENROUTE
2026-05-07 13:36:58 199 478 41616 763 -55 ENROUTE
2026-05-07 13:37:28 199 478 41617 767 -55 ENROUTE
2026-05-07 13:37:58 199 478 41619 771 -55 ENROUTE
2026-05-07 13:38:28 199 478 41618 775 -55 ENROUTE
2026-05-07 13:38:58 199 478 41618 779 -55 ENROUTE
2026-05-07 13:39:28 198 478 41618 783 -56 ENROUTE
2026-05-07 13:39:58 198 478 41618 787 -56 ENROUTE
2026-05-07 13:40:28 198 478 41618 791 -56 ENROUTE
2026-05-07 13:40:58 198 478 41618 795 -56 ENROUTE
2026-05-07 13:41:28 198 478 41617 799 -55 ENROUTE
2026-05-07 13:41:58 198 478 41617 803 -55 ENROUTE
2026-05-07 13:42:28 198 478 41617 807 -55 ENROUTE
2026-05-07 13:42:58 198 478 41618 811 -55 ENROUTE
2026-05-07 13:43:28 198 478 41624 815 -55 ENROUTE
2026-05-07 13:43:58 198 478 41625 819 -55 ENROUTE
2026-05-07 13:44:28 198 478 41625 823 -55 ENROUTE
2026-05-07 13:44:58 198 477 41633 827 -55 ENROUTE
2026-05-07 13:45:28 198 477 41633 831 -55 ENROUTE
2026-05-07 13:45:58 198 477 41633 835 -55 ENROUTE
2026-05-07 13:46:28 198 477 41626 839 -55 ENROUTE
2026-05-07 13:46:58 199 477 41621 843 -55 ENROUTE
2026-05-07 13:47:28 198 477 41617 847 -55 ENROUTE
2026-05-07 13:47:58 198 477 41617 851 -55 ENROUTE
2026-05-07 13:48:28 198 477 41617 855 -55 ENROUTE
2026-05-07 13:48:58 199 477 41625 859 -55 ENROUTE
2026-05-07 13:49:28 198 477 41626 863 -55 ENROUTE
2026-05-07 13:49:58 198 476 41625 867 -55 ENROUTE
2026-05-07 13:50:28 198 476 41625 871 -55 ENROUTE
2026-05-07 13:50:58 199 476 41633 875 -55 ENROUTE
2026-05-07 13:51:28 199 476 41634 879 -55 ENROUTE
2026-05-07 13:51:58 199 476 41634 883 -55 ENROUTE
2026-05-07 13:52:28 198 475 41634 887 -55 ENROUTE
2026-05-07 13:52:58 198 475 41633 891 -55 ENROUTE
2026-05-07 13:53:28 198 475 41633 895 -55 ENROUTE
2026-05-07 13:53:58 198 475 41633 899 -55 ENROUTE
2026-05-07 13:54:28 199 475 41642 903 -55 ENROUTE
2026-05-07 13:54:58 199 474 41643 907 -55 ENROUTE
2026-05-07 13:55:28 199 474 41643 911 -55 ENROUTE
2026-05-07 13:55:58 199 474 41643 915 -55 ENROUTE
2026-05-07 13:56:28 199 474 41644 919 -56 ENROUTE
2026-05-07 13:56:58 199 474 41645 923 -56 ENROUTE
2026-05-07 13:57:28 199 474 41645 927 -56 ENROUTE
2026-05-07 13:57:58 199 474 41644 931 -56 ENROUTE
2026-05-07 13:58:28 198 473 41645 935 -56 ENROUTE
2026-05-07 13:58:58 198 473 41645 939 -56 ENROUTE
2026-05-07 13:59:28 198 473 41644 943 -56 ENROUTE
2026-05-07 13:59:58 198 473 41660 947 -56 ENROUTE
2026-05-07 14:00:28 198 470 41657 951 -56 ENROUTE
2026-05-07 14:00:58 198 457 41659 955 -56 ENROUTE
2026-05-07 14:01:28 198 434 41667 959 -56 ENROUTE
2026-05-07 14:01:58 197 404 41694 963 -55 ENROUTE
2026-05-07 14:02:28 197 383 41702 967 -55 ENROUTE
2026-05-07 14:02:58 197 391 41704 971 -55 ENROUTE
2026-05-07 14:03:28 198 415 41702 975 -55 ENROUTE
2026-05-07 14:03:58 198 421 41706 979 -55 ENROUTE
2026-05-07 14:04:28 198 413 41729 983 -55 ENROUTE
2026-05-07 14:04:58 197 417 41741 987 -55 ENROUTE
2026-05-07 14:05:28 198 415 41743 991 -55 ENROUTE
2026-05-07 14:05:58 198 416 41744 995 -55 ENROUTE
2026-05-07 14:06:28 197 415 41768 999 -55 ENROUTE
2026-05-07 14:06:58 198 416 41769 1003 -55 ENROUTE
2026-05-07 14:07:28 198 416 41770 1007 -55 ENROUTE
2026-05-07 14:07:58 198 416 41770 1011 -55 ENROUTE
2026-05-07 14:08:28 198 416 41771 1015 -55 ENROUTE
2026-05-07 14:08:58 197 416 41801 1019 -56 ENROUTE
2026-05-07 14:09:28 197 441 41801 1023 -56 ENROUTE
2026-05-07 14:09:58 197 459 41807 1027 -56 ENROUTE
2026-05-07 14:10:28 197 469 41814 1031 -56 ENROUTE
2026-05-07 14:10:58 197 468 41820 1035 -56 ENROUTE
2026-05-07 14:11:28 198 464 41814 1039 -55 ENROUTE
2026-05-07 14:11:58 198 467 41813 1043 -55 ENROUTE
2026-05-07 14:12:28 198 465 41819 1047 -55 ENROUTE
2026-05-07 14:12:58 198 467 41788 1051 -55 ENROUTE
2026-05-07 14:13:28 198 467 41790 1055 -55 ENROUTE
2026-05-07 14:13:58 199 467 41791 1059 -55 ENROUTE
2026-05-07 14:14:28 199 468 41791 1063 -55 ENROUTE
2026-05-07 14:14:58 199 471 41792 1067 -55 ENROUTE
2026-05-07 14:15:28 198 466 41800 1071 -55 ENROUTE
2026-05-07 14:15:58 198 469 41804 1075 -55 ENROUTE
2026-05-07 14:16:28 198 469 41809 1079 -55 ENROUTE
2026-05-07 14:16:58 198 468 41809 1083 -55 ENROUTE
2026-05-07 14:17:28 198 468 41811 1087 -55 ENROUTE
2026-05-07 14:17:58 198 468 41810 1091 -55 ENROUTE
2026-05-07 14:18:28 198 468 41811 1095 -55 ENROUTE
2026-05-07 14:18:58 198 468 41809 1099 -55 ENROUTE
2026-05-07 14:19:28 198 464 41806 1103 -55 ENROUTE
2026-05-07 14:19:58 199 448 41810 1107 -55 ENROUTE
2026-05-07 14:20:28 198 425 41810 1111 -55 ENROUTE
2026-05-07 14:20:58 198 397 41833 1115 -55 ENROUTE
2026-05-07 14:21:28 198 388 41841 1119 -55 ENROUTE
2026-05-07 14:21:58 198 400 41840 1123 -55 ENROUTE
2026-05-07 14:22:28 198 420 41839 1127 -55 ENROUTE
2026-05-07 14:22:58 197 415 41863 1131 -55 ENROUTE
2026-05-07 14:23:28 197 416 41866 1135 -55 ENROUTE
2026-05-07 14:23:58 197 417 41868 1139 -55 ENROUTE
2026-05-07 14:24:28 198 416 41869 1143 -55 ENROUTE
2026-05-07 14:24:58 198 417 41871 1147 -55 ENROUTE
2026-05-07 14:25:28 198 417 41890 1151 -55 ENROUTE
2026-05-07 14:25:58 198 417 41891 1155 -55 ENROUTE
2026-05-07 14:26:28 198 417 41892 1159 -55 ENROUTE
2026-05-07 14:26:58 198 417 41893 1163 -55 ENROUTE
2026-05-07 14:27:28 198 417 41924 1167 -55 ENROUTE
2026-05-07 14:27:58 198 417 41924 1171 -55 ENROUTE
2026-05-07 14:28:28 198 417 41925 1175 -55 ENROUTE
2026-05-07 14:28:58 198 417 41935 1179 -55 ENROUTE
2026-05-07 14:29:28 198 418 41936 1183 -55 ENROUTE
2026-05-07 14:29:58 198 423 41956 1187 -55 ENROUTE
2026-05-07 14:30:28 198 442 41959 1191 -55 ENROUTE
2026-05-07 14:30:58 198 449 41966 1195 -55 ENROUTE
2026-05-07 14:31:28 198 444 41971 1199 -55 ENROUTE
2026-05-07 14:31:58 198 447 41974 1203 -55 ENROUTE
2026-05-07 14:32:28 199 446 41973 1207 -55 ENROUTE
2026-05-07 14:32:58 197 443 42082 1211 -56 CLIMB
2026-05-07 14:33:28 196 442 42155 1215 -56 ENROUTE
2026-05-07 14:33:58 196 442 42156 1219 -56 ENROUTE
2026-05-07 14:34:28 197 443 42159 1223 -56 ENROUTE
2026-05-07 14:34:58 197 443 42160 1227 -56 ENROUTE
2026-05-07 14:35:28 198 445 42109 1231 -56 ENROUTE
2026-05-07 14:35:58 198 445 42112 1235 -56 ENROUTE
2026-05-07 14:36:28 198 445 42115 1239 -56 ENROUTE
2026-05-07 14:36:58 198 445 42116 1243 -56 ENROUTE
2026-05-07 14:37:28 198 445 42117 1247 -56 ENROUTE
2026-05-07 14:37:58 199 446 42118 1251 -56 ENROUTE
2026-05-07 14:38:28 199 446 42120 1255 -56 ENROUTE
2026-05-07 14:38:58 199 446 42120 1259 -56 ENROUTE
2026-05-07 14:39:28 199 446 42121 1263 -56 ENROUTE
2026-05-07 14:39:58 199 446 42122 1267 -56 ENROUTE
2026-05-07 14:40:28 199 446 42136 1271 -56 ENROUTE
2026-05-07 14:40:58 199 445 42139 1275 -56 ENROUTE
2026-05-07 14:41:28 199 445 42139 1279 -56 ENROUTE
2026-05-07 14:41:58 199 445 42140 1283 -56 ENROUTE
2026-05-07 14:42:28 199 445 42140 1287 -56 ENROUTE
2026-05-07 14:42:58 199 445 42140 1291 -56 ENROUTE
2026-05-07 14:43:28 199 445 42141 1295 -56 ENROUTE
2026-05-07 14:43:58 199 445 42141 1299 -56 ENROUTE
2026-05-07 14:44:28 199 445 42162 1303 -56 ENROUTE
2026-05-07 14:44:58 199 445 42162 1307 -56 ENROUTE
2026-05-07 14:45:28 199 445 42162 1311 -56 ENROUTE
2026-05-07 14:45:58 199 445 42162 1315 -56 ENROUTE
2026-05-07 14:46:28 200 444 42171 1319 -56 ENROUTE
2026-05-07 14:46:58 199 444 42172 1323 -56 ENROUTE
2026-05-07 14:47:28 199 444 42172 1327 -56 ENROUTE
2026-05-07 14:47:58 200 444 42182 1331 -56 ENROUTE
2026-05-07 14:48:28 199 442 42235 1334 -56 ENROUTE
2026-05-07 14:48:58 199 442 42242 1338 -57 ENROUTE
2026-05-07 14:49:28 199 442 42242 1342 -57 ENROUTE
2026-05-07 14:49:58 199 442 42242 1346 -57 ENROUTE
2026-05-07 14:50:28 199 442 42242 1350 -57 ENROUTE
2026-05-07 14:50:58 199 442 42243 1354 -57 ENROUTE
2026-05-07 14:51:28 199 442 42243 1358 -57 ENROUTE
2026-05-07 14:51:58 199 441 42262 1362 -56 ENROUTE
2026-05-07 14:52:28 199 441 42262 1366 -56 ENROUTE
2026-05-07 14:52:58 199 440 42111 1370 -56 DESCENT
2026-05-07 14:53:28 203 445 40716 1372 -55 DESCENT
2026-05-07 14:53:58 209 449 39333 1374 -52 DESCENT
2026-05-07 14:54:28 220 448 37963 1376 -49 DESCENT
2026-05-07 14:54:58 225 440 36750 1378 -47 DESCENT
2026-05-07 14:55:28 230 432 35525 1380 -44 DESCENT
2026-05-07 14:55:58 230 421 34361 1382 -41 DESCENT
2026-05-07 14:56:28 229 413 33264 1384 -38 DESCENT
2026-05-07 14:56:58 232 410 32133 1386 -35 DESCENT
2026-05-07 14:57:28 235 407 30969 1388 -32 DESCENT
2026-05-07 14:57:58 236 401 29933 1390 -29 DESCENT
2026-05-07 14:58:28 236 395 28906 1392 -27 DESCENT
2026-05-07 14:58:58 236 388 27979 1394 -25 DESCENT
2026-05-07 14:59:28 248 399 26889 1398 -22 DESCENT
2026-05-07 14:59:58 260 407 25743 1401 -19 DESCENT
2026-05-07 15:00:28 270 412 24518 1405 -16 DESCENT
2026-05-07 15:00:58 275 411 23385 1408 -14 DESCENT
2026-05-07 15:01:28 278 408 22302 1412 -12 DESCENT
2026-05-07 15:01:58 281 405 21190 1416 -10 DESCENT
2026-05-07 15:02:28 285 403 20046 1419 -7 DESCENT
2026-05-07 15:02:58 289 401 18864 1423 -5 DESCENT
2026-05-07 15:03:28 291 396 17753 1427 -3 DESCENT
2026-05-07 15:03:58 285 384 16708 1430 -1 DESCENT
2026-05-07 15:04:28 281 374 15643 1433 1 DESCENT
2026-05-07 15:04:58 280 367 14582 1436 3 DESCENT
2026-05-07 15:05:28 280 362 13554 1439 4 DESCENT
2026-05-07 15:05:58 280 357 12605 1443 5 DESCENT
2026-05-07 15:06:28 258 324 11680 1444 5 DESCENT
2026-05-07 15:06:58 245 305 10805 1446 6 DESCENT
2026-05-07 15:07:28 239 293 9954 1447 7 DESCENT
2026-05-07 15:07:58 234 283 9190 1448 8 DESCENT
2026-05-07 15:08:28 231 271 8449 1450 10 DESCENT
2026-05-07 15:08:58 221 255 7741 1451 11 DESCENT
2026-05-07 15:09:28 214 242 7049 1452 12 DESCENT
2026-05-07 15:09:58 209 235 6374 1454 13 DESCENT
2026-05-07 15:10:28 204 235 5775 1455 15 DESCENT
2026-05-07 15:10:58 202 228 5202 1456 16 DESCENT
2026-05-07 15:11:28 200 225 4631 1457 17 DESCENT
2026-05-07 15:11:58 199 222 4068 1458 18 DESCENT
2026-05-07 15:12:28 181 201 3557 1460 19 DESCENT
2026-05-07 15:12:58 187 206 3030 1462 20 DESCENT
2026-05-07 15:13:28 194 211 2504 1465 20 DESCENT
2026-05-07 15:13:58 182 193 1973 1467 21 APPROACH
2026-05-07 15:14:28 167 177 1502 1470 21 APPROACH
2026-05-07 15:14:58 142 148 1086 1474 21 APPROACH
2026-05-07 15:15:28 124 129 723 1477 22 ON FINAL
2026-05-07 15:15:58 126 129 411 1481 22 ON FINAL
2026-05-07 15:16:28 128 130 111 1485 22 ON FINAL
2026-05-07 15:16:58 20 21 117 1486 23 TAXI TO APRON
2026-05-07 15:17:28 17 18 123 1487 23 TAXI TO APRON
2026-05-07 15:17:58 19 20 121 1488 23 TAXI TO APRON
2026-05-07 15:18:28 16 17 124 1489 23 TAXI TO APRON
2026-05-07 15:18:58 26 27 128 1490 23 TAXI TO APRON
2026-05-07 15:19:28 20 21 132 1491 23 TAXI TO APRON
2026-05-07 15:19:58 12 13 136 1492 22 TAXI TO APRON
2026-05-07 15:20:28 0 0 137 1493 23 TAXI TO APRON
2026-05-07 15:20:58 0 0 137 1494 23 TAXI TO APRON
2026-05-07 15:21:28 0 0 137 1494 23 TAXI TO APRON
2026-05-07 15:21:58 0 0 137 1494 23 TAXI TO APRON
2026-05-07 15:22:28 0 0 137 1494 23 TAXI TO APRON
2026-05-07 15:22:58 0 0 137 1494 23 TAXI TO APRON
2026-05-07 15:23:28 0 0 137 1494 23 TAXI TO APRON
2026-05-07 15:23:58 0 0 137 1494 23 TAXI TO APRON
2026-05-07 15:24:28 0 0 137 1494 23 TAXI TO APRON
2026-05-07 15:24:58 0 0 137 1494 23 TAXI TO APRON
2026-05-07 15:25:28 0 0 137 1494 23 TAXI TO APRON
2026-05-07 15:25:58 0 0 137 1494 23 TAXI TO APRON
2026-05-07 15:26:28 0 0 137 1494 23 TAXI TO APRON
2026-05-07 15:26:58 0 0 137 1494 23 TAXI TO APRON
2026-05-07 15:27:28 0 0 137 1494 23 TAXI TO APRON
2026-05-07 15:27:58 0 0 137 1494 23 TAXI TO APRON
2026-05-07 15:28:28 0 0 137 1494 23 TAXI TO APRON
2026-05-07 15:28:58 0 0 137 1494 23 TAXI TO APRON
2026-05-07 15:29:28 0 0 137 1494 23 TAXI TO APRON
  • Join our VA!

    It has been 11 years of great learning, friendships, and stories.

  • Sign up now!